Aughwick, Pennsylvania
Current Conditions -  °F | °C
As of 8:53 AM on Thursday 18 Dec 2014 (Local Time) from KAOO Reporting Station
Light Snow Light Snow  
Wind Chill: 17°   Ceiling: 2000
Heat Index: 27°   Visibility: 6mi
Dew Point: 21°   Wind: 10mph
Humidity: 78%   Direction: 300°WNW
Pressure: 30.11"   Gusts: NA
Location:  40.4281°N, 77.8329°W
Report Text: KAOO 181353Z AUTO 30009KT 6SM -SN OVC020 M03/M06 A3011 RMK AO2 SNB51 SLP214 P0000 T10281061
Loading
Personal Weather Stations






























Interactive Weather Map New forecast layout! Learn more

10-Day Weather Forecast

Advertisements
Track Severe Weather on mobile